This is the latest recevied weather packets stored in our database for station/object N7YET. If no packets are shown the sender has not sent any weather packets the latest 10 day(s).
| Time | Temp. | Humidity | Pressure | Rain* | Wind** | Luminosity | Snow |
|---|---|---|---|---|---|---|---|
| 1778144225 | 12.22° C | 53% | 1231.9 hPa | 0 mm | - | - | - |
| 1778143624 | 11.67° C | 54% | 1231.9 hPa | 0 mm | - | - | - |
| 1778143023 | 11.67° C | 54% | 1231.9 hPa | 0 mm | - | - | - |
| 1778142423 | 12.22° C | 54% | 1231.9 hPa | 0 mm | - | - | - |
| 1778141822 | 11.67° C | 56% | 1231.9 hPa | 0 mm | - | - | - |
| 1778141221 | 11.11° C | 57% | 1231.9 hPa | 0 mm | - | - | - |
| 1778140621 | 11.11° C | 58% | 1231.9 hPa | 0 mm | - | - | - |
| 1778140020 | 11.11° C | 59% | 1231.9 hPa | 0 mm | - | - | - |
| 1778139420 | 10.56° C | 61% | 1231.9 hPa | 0 mm | - | - | - |
| 1778138819 | 10.56° C | 61% | 1231.9 hPa | 0 mm | - | - | - |
| 1778138219 | 10.56° C | 61% | 1231.9 hPa | 0 mm | - | - | - |
| 1778137618 | 10.56° C | 61% | 1231.9 hPa | 0 mm | - | - | - |
| 1778137017 | 10.56° C | 62% | 1231.9 hPa | 0 mm | - | - | - |
| 1778136417 | 10.56° C | 62% | 1231.9 hPa | 0 mm | - | - | - |
| 1778135816 | 10.56° C | 64% | 1231.9 hPa | 0 mm | - | - | - |
| 1778135215 | 10° C | 65% | 1231.9 hPa | 0 mm | - | - | - |
| 1778134615 | 10° C | 65% | 1231.9 hPa | 0 mm | - | - | - |
| 1778134014 | 10° C | 63% | 1231.9 hPa | 0 mm | - | - | - |
| 1778133413 | 10.56° C | 62% | 1231.9 hPa | 0 mm | - | - | - |
| 1778132813 | 10.56° C | 62% | 1231.9 hPa | 0 mm | - | - | - |
| 1778132212 | 10.56° C | 63% | 1231.9 hPa | 0 mm | - | - | - |
| 1778131612 | 10° C | 62% | 1231.9 hPa | 0 mm | - | - | - |
| 1778131011 | 11.11° C | 57% | 1231.9 hPa | 0 mm | - | - | - |
| 1778130410 | 12.22° C | 54% | 1231.9 hPa | 0 mm | - | - | - |
| 1778129810 | 12.22° C | 52% | 1231.9 hPa | 0 mm | - | - | - |
* Rain latest hour (hover to see other rain measurements)
** Current wind speed in m/s (hover to see current wind gust speed)